Gabriel Petit

Olheiro-Chefe - Nimes
6 Ago 2028
Domingo
Processo

Personalidade

Adaptabilidade (9) Ambição (17) Controvérsia (4) Lealdade (10) Pressão (18) Profissionalismo (3) Espírito Esportivo (15) Temperamento (15)

Perfil

Estilo de Treinamento Democrático
Licença Nacional B
Determinação 7
Gestão de Pessoas 11
Motivação 11
Disciplina 12
Satisfação no Trabalho
100%
Fadiga
0%
Função Olheiro-Chefe
Salário 26.2K p/s
Contrato 14.03.2030

Desempenho

Comportamento Bom
Eficácia do Treinamento
40%
Desenvolvimento do Jogador
20%
Prevenção de Lesões
35%
Implementação Tática
30%

Eventos Recentes

Participou de uma reunião de recrutamento agora
Avaliou um jogador 7d atrás
Participou de uma reunião de recrutamento 7d atrás
Recomendou um alvo de transferência 7d atrás
Recomendou um alvo de transferência 7d atrás
Participou de uma reunião de recrutamento 14d atrás
Recomendou um alvo de transferência 14d atrás
Recomendou um alvo de transferência 14d atrás

Monitorando agora

177
Jogador Clube Status Habilidade Confiança Observado Última observação Último voto
Nolann Bourichon Valenciennes Relatório pronto 86 / 107 69% 1 31.07.2028 -
David Fernande PWD Bamenda Ativo 74 / 76 40% 6 24.07.2028 -
Jan Bürger Northampton Town Ativo 128 / 130 40% 8 24.07.2028 -
Erin Airhiavbere Valenciennes Relatório pronto 101 / 103 69% 1 24.07.2028 -
Miguel Figueiredo Benfica Ativo 117 / 128 40% 1 24.07.2028 -
Arsene Mekila Gazelle Garoua Ativo 88 / 86 40% 8 17.07.2028 -
Riquelme Thompson-Jones Accrington Stanley Ativo 115 / 126 40% 11 17.07.2028 -
Lamine Bèye Portimonense Ativo 112 / 124 40% 1 28.06.2028 -
Andrija Bulatović Chamois Niortais Ativo 121 / 142 40% 7 19.06.2028 -
Maël Monyebe Gazelle Garoua Ativo 76 / 92 40% 2 19.06.2028 -
Kamaldeen Atiemo Wa All Stars Ativo 104 / 105 40% 1 19.06.2028 -
Kelian Le Pironnec Mirandés Ativo 102 / 99 40% 3 06.06.2028 -
Simone Suppa Virtus Verona Ativo 81 / 88 40% 1 02.06.2028 -
Taher Mohamed Al Ahly Ativo 117 / 130 40% 1 31.05.2028 -
Marc Bola Watford Ativo 125 / 121 40% 1 31.05.2028 -
Daniel Banjaqui Benfica Ativo 129 / 131 40% 7 25.05.2028 -
Jorthy Mokio ADO Den Haag Ativo 137 / 133 40% 9 24.05.2028 -
Thijs Kraaijeveld USM Alger Ativo 130 / 116 40% 7 24.05.2028 -
Josh Nichols Oldham Athletic Ativo 120 / 132 40% 8 20.05.2028 -
Aboubacar Meïté Afrique Foot Elite Ativo 80 / 89 40% 2 17.05.2028 -
Itumeleng Jali Spezia Ativo 113 / 114 40% 2 17.05.2028 -
Olivier Leroux Mouscron Ativo 97 / 105 40% 5 15.05.2028 -
Adnan Nainggolan KV Oostende Ativo 104 / 106 40% 5 13.05.2028 -
Konta Ismaily Ativo 96 / 105 40% 5 12.05.2028 -
Nicolò Moranduzzo Renate Ativo 85 / 109 40% 2 11.05.2028 -
Ousmane Simpara Etoiles du Mande Ativo 93 / 97 40% 4 09.05.2028 -
Nko Ghangle Rattensi Victoria United Ativo 78 / 77 40% 2 09.05.2028 -
Destiny Geneneke PWD Bamenda Ativo 74 / 91 40% 1 06.05.2028 -
Dmytro Strilchuk Podillia Ativo 77 / 79 40% 4 05.05.2028 -
Bernardo Lima Porto Ativo 105 / 125 40% 3 04.05.2028 -
Abubakar Adams Aduana Stars Ativo 82 / 96 40% 4 01.05.2028 -
Kwesi Sorotu Badori Berekum Chelsea Ativo 101 / 111 40% 1 28.04.2028 -
Martim Cunha Porto Ativo 102 / 118 40% 4 21.04.2028 -
Kiani Inge Groningen Ativo 118 / 119 40% 4 19.04.2028 -
Tobiáš Pališčák Zlin Ativo 101 / 117 40% 3 17.04.2028 -
Jason Witsel PSV Ativo 125 / 136 40% 4 15.04.2028 -
Augusto Bando Ascoli Ativo 103 / 110 40% 1 14.04.2028 -
Lior Mashansky Foullah Edifice Ativo 79 / 67 40% 3 04.04.2028 -
Tyler Fletcher Rotherham United Ativo 113 / 118 40% 3 18.03.2028 -
Giovanni Leoni Lincoln City Ativo 137 / 144 40% 2 12.03.2028 -
Andrey Ivlev Nizhniy Novgorod Ativo 119 / 127 40% 4 09.03.2028 -
Thato Sibiya Orlando Pirates Ativo 109 / 120 40% 1 29.02.2028 -
Matvey Bardachev Zenit Ativo 95 / 114 40% 1 26.02.2028 -
Zane Albarus Shrewsbury Town Ativo 105 / 99 40% 2 23.02.2028 -
Junior Titico Fanga Aigle Royal de Moungo Ativo 80 / 70 40% 1 23.02.2028 -
Amine Boukamir Charleroi Ativo 104 / 101 40% 2 21.02.2028 -
Makar Vysochenko Spartak Moscow Ativo 95 / 105 40% 1 17.02.2028 -
Nhoa Sangui AS Nancy Ativo 124 / 135 40% 1 16.02.2028 -
Edvard Pettersen Sandefjord Ativo 116 / 100 40% 1 14.02.2028 -
Esquerdinha Notts County Ativo 118 / 132 40% 2 10.02.2028 -
Matías Canedo Rampla Juniors Ativo 85 / 89 40% 1 08.02.2028 -
Jonathan Bamba Chicago Fire Ativo 125 / 128 40% 1 24.01.2028 -
Juan Bisanz Huracán Ativo 138 / 124 40% 1 24.01.2028 -
Manuel Mónaco Sarmiento Ativo 129 / 119 40% 1 24.01.2028 -
Matías Rosales Sarmiento Ativo 109 / 103 40% 1 11.01.2028 -
Iñaki Larthirigoyen San Telmo Ativo 110 / 119 40% 1 11.01.2028 -
Ramón González Almirante Brown Ativo 116 / 123 40% 1 03.01.2028 -
Allan Saint-Maximin Charlotte Football Club Ativo 142 / 146 40% 1 03.01.2028 -
Mao Hosoya Santos Ativo 134 / 135 67% 1 01.01.2028 Aprovar
Cristhián Rivas Estudiantes de Merida Ativo 109 / 124 40% 1 24.08.2027 -
Patson Daka Leicester City Ativo 129 / 122 40% 2 05.06.2027 -
Tyreece Campbell Charlton Athletic Ativo 118 / 124 40% 2 02.06.2027 -
Mohamed-Ali Cho Hull City Ativo 138 / 131 40% 3 01.06.2027 -
Milan van Ewijk Coventry City Ativo 134 / 128 40% 1 31.05.2027 -
Marley Aké Zulte Waregem Ativo 115 / 124 40% 6 30.05.2027 -
Kwadwo Baah Watford Ativo 135 / 132 40% 2 29.05.2027 -
Joe Gelhardt Hull City Ativo 129 / 137 40% 5 28.05.2027 -
Ilias Chair Queens Park Rangers Ativo 121 / 126 40% 1 28.05.2027 -
Max Johnston Derby County Ativo 129 / 121 40% 2 27.05.2027 -
Ali Ahmed Norwich City Ativo 117 / 130 40% 1 27.05.2027 -
Ryoya Morishita Blackburn Rovers Ativo 134 / 115 40% 1 27.05.2027 -
Brian De Keersmaecker Oxford United Ativo 126 / 125 40% 1 27.05.2027 -
Max Bird Birmingham Ativo 137 / 122 40% 3 26.05.2027 -
Marcus McGuane Huddersfield Town Ativo 124 / 120 40% 1 26.05.2027 -
Alessio Zerbin Frosinone Ativo 139 / 124 40% 2 24.05.2027 -
Finn Azaz Southampton Ativo 130 / 124 40% 4 23.05.2027 -
Thierry Ambrose KV Kortrijk Ativo 133 / 129 40% 9 21.05.2027 -
Malick Mbaye Zulte Waregem Ativo 117 / 114 40% 7 20.05.2027 -
Alfie Gilchrist West Bromwich Albion Ativo 135 / 126 40% 2 20.05.2027 -
Casper Tengstedt Toulouse FC Ativo 134 / 114 40% 1 20.05.2027 -
Tony Springett Cheltenham Town Ativo 100 / 100 40% 1 20.05.2027 -
Japhet Tanganga Sheffield United Ativo 139 / 141 40% 1 20.05.2027 -
Ilias Sebaoui Sint-Truiden Ativo 137 / 128 40% 5 18.05.2027 -
Jack Rudoni Coventry City Ativo 142 / 126 40% 2 16.05.2027 -
Sorriso Famalicao Ativo 128 / 122 40% 1 16.05.2027 -
Marezi Portsmouth Ativo 113 / 125 40% 1 15.05.2027 -
Amine Sbaï Angers SCO Ativo 126 / 138 40% 3 11.05.2027 -
Azor Matusiwa Ipswich Town Ativo 129 / 132 40% 1 11.05.2027 -
Daniel Kyerewaa Reading Ativo 107 / 120 40% 2 08.05.2027 -
Brooke Norton-Cuffy Hull City Ativo 139 / 132 40% 2 06.05.2027 -
Sorba Thomas Stoke City Ativo 137 / 138 40% 1 06.05.2027 -
Habib Diarra Sunderland Ativo 141 / 140 40% 1 06.05.2027 -
Anatole Abang USM Alger Ativo 121 / 108 40% 1 04.05.2027 -
Chukwubuikem Ikwuemesi OH Leuven Ativo 127 / 122 40% 2 03.05.2027 -
Matthew Targett Hull City Ativo 126 / 130 40% 2 30.04.2027 -
Justo Giani Umraniyespor Ativo 116 / 119 40% 4 29.04.2027 -
Elijah Adebayo Luton Town Ativo 117 / 116 40% 2 29.04.2027 -
Yousef Salech Cardiff City Ativo 125 / 131 40% 1 29.04.2027 -
Ilyas Ansah Hull City Ativo 123 / 140 40% 2 27.04.2027 -
Kyle Wootton Stockport County Ativo 128 / 124 40% 1 27.04.2027 -
Jackson Muleka Konyaspor Ativo 138 / 112 40% 2 25.04.2027 -
Cian Ashford Cardiff City Ativo 118 / 128 40% 1 23.04.2027 -
Thomas Claes Zulte Waregem Ativo 109 / 120 40% 2 22.04.2027 -
Rafiu Durosinmi Racing Genk Ativo 125 / 124 40% 1 22.04.2027 -
Sam Greenwood Bristol City Ativo 123 / 112 40% 1 22.04.2027 -
Ewoud Pletinckx OH Leuven Ativo 123 / 125 40% 1 21.04.2027 -
Pelle Mattsson Norwich City Ativo 132 / 116 40% 1 21.04.2027 -
Yaimar Medina Racing Genk Ativo 120 / 125 40% 2 19.04.2027 -
Toti Wolverhampton Ativo 127 / 126 40% 1 19.04.2027 -
Oladapo Afolayan Blackburn Rovers Ativo 130 / 122 40% 2 16.04.2027 -
Rafael Navarro Famalicao Ativo 127 / 125 40% 1 14.04.2027 -
Zian Flemming Ipswich Town Ativo 133 / 135 40% 1 13.04.2027 -
Mohammed El Hankouri Standard Liege Ativo 122 / 127 40% 2 12.04.2027 -
Marcelo Allende Mamelodi Sundowns Ativo 127 / 122 40% 3 10.04.2027 -
Ilan Kebbal Paris FC Ativo 141 / 123 40% 1 08.04.2027 -
Habib Diallo FC Metz Ativo 136 / 118 40% 1 08.04.2027 -
Thibaud Verlinden OH Leuven Ativo 120 / 115 40% 4 06.04.2027 -
Oli McBurnie Hull City Ativo 134 / 138 40% 1 03.04.2027 -
Ilyes Najim Waasland-Beveren Ativo 120 / 115 40% 1 31.03.2027 -
Tyrese Campbell Sheffield United Ativo 130 / 115 40% 5 30.03.2027 -
Oliver Skipp Leicester City Ativo 128 / 126 40% 1 30.03.2027 -
Oswin Appollis Orlando Pirates Ativo 113 / 123 40% 1 30.03.2027 -
Will Hughes Bloemfontein Celtic Ativo 140 / 123 40% 1 26.03.2027 -
Isaiah Jones Luton Town Ativo 126 / 132 40% 3 22.03.2027 -
Dimitri Lavalée Standard Liege Ativo 120 / 136 40% 3 18.03.2027 -
João Carvalho Estoril Praia Ativo 143 / 127 40% 1 18.03.2027 -
Timothy Witsel FC Metz Ativo 132 / 138 40% 1 17.03.2027 -
Luca Koleosho Paris FC Ativo 136 / 120 40% 2 16.03.2027 -
Aiyegun Tosin FC Lorient Ativo 133 / 128 40% 1 16.03.2027 -
Daan Heymans Racing Genk Ativo 132 / 122 40% 1 15.03.2027 -
Matisse Samoise KAA Gent Ativo 128 / 125 40% 2 14.03.2027 -
Pape Meïssa Bâ AS Nancy Ativo 127 / 127 40% 1 12.03.2027 -
Sylvester Jasper Standard Liege Ativo 113 / 117 40% 4 10.03.2027 -
Bongani Zungu Ajax Cape Town Ativo 116 / 123 40% 1 10.03.2027 -
Aune Heggebø West Bromwich Albion Ativo 132 / 126 40% 1 10.03.2027 -
Erick Dolly Black Aces Ativo 103 / 118 40% 1 10.03.2027 -
Chris Lokesa Waasland-Beveren Ativo 112 / 134 40% 3 08.03.2027 -
Juan Bezerra Zamalek Ativo 129 / 127 40% 1 07.03.2027 -
Kevin Amaro Racing Genk Ativo 123 / 135 40% 1 05.03.2027 -
Bradley Zwane SuperSport United Ativo 125 / 113 40% 1 04.03.2027 -
Mama Baldé Stade Brestois Ativo 126 / 121 40% 1 02.03.2027 -
Samuel Kalu Botev Plovdiv Ativo 133 / 132 40% 1 01.03.2027 -
Velemseni Ndwandwe Golden Arrows Ativo 116 / 113 40% 1 28.02.2027 -
David Amegnaglo Westerlo Ativo 99 / 111 40% 1 24.02.2027 -
Malik Mothersille Stockport County Ativo 105 / 108 40% 1 19.02.2027 -
Dylan Ourega Westerlo Ativo 109 / 115 40% 1 18.02.2027 -
Lorent Tolaj Plymouth Argyle Ativo 126 / 129 40% 1 17.02.2027 -
Aurélien Scheidler Charleroi Ativo 115 / 126 40% 1 16.02.2027 -
Juninho Pumas UNAM Ativo 116 / 142 40% 1 16.02.2027 -
Pablo Fernández Leiria Ativo 115 / 99 40% 1 15.02.2027 -
Tommy St. Jago KV Mechelen Ativo 130 / 113 40% 2 12.02.2027 -
Mardochée Nzita Charleroi Ativo 124 / 111 40% 2 09.02.2027 -
Bernard Tekpetey Ludogorets Ativo 141 / 130 40% 1 07.02.2027 -
Ryotaro Araki Sint-Truiden Ativo 125 / 118 40% 1 25.01.2027 -
Antoine Colassin Charleroi Ativo 127 / 123 40% 2 01.01.2027 -
Sampson Dweh Mallorca Ativo 133 / 134 66% 1 01.01.2027 Aprovar
Ayman Kari Westerlo Ativo 117 / 117 40% 1 29.12.2026 -
Taiga Hata Sint-Truiden Ativo 127 / 129 40% 1 25.12.2026 -
Ramiro Sordo Santos Laguna Ativo 115 / 114 40% 1 21.12.2026 -
Kyriani Sabbe Club Brugge Ativo 113 / 133 40% 1 20.12.2026 -
Kévin Danois AJ Auxerre Ativo 136 / 126 40% 1 05.12.2026 -
Sebastián Córdova Pumas UNAM Ativo 135 / 125 40% 1 02.12.2026 -
Leonardo Lopes KAA Gent Ativo 110 / 123 40% 1 28.11.2026 -
Abdelkahar Kadri KAA Gent Ativo 133 / 133 40% 2 26.11.2026 -
Thomas Van Den Keybus Westerlo Ativo 107 / 117 40% 2 24.11.2026 -
Ibrahim Karamoko Standard Liege Ativo 113 / 110 40% 1 24.11.2026 -
Carlos Rodríguez Cruz Azul Ativo 133 / 131 40% 2 21.11.2026 -
William Balikwisha OH Leuven Ativo 116 / 106 40% 2 14.11.2026 -
Jeppe Erenbjerg Racing Genk Ativo 125 / 120 40% 1 11.11.2026 -
Tristan Degreef Anderlecht Ativo 122 / 129 40% 2 10.11.2026 -
Arno Verschueren Waasland-Beveren Ativo 127 / 134 40% 1 04.11.2026 -
Maksim Kireev KV Mechelen Ativo 109 / 117 40% 1 02.11.2026 -
Marlon Fossey Standard Liege Ativo 134 / 114 40% 1 07.09.2026 -
Jan Virgili Club Brugge Ativo 121 / 130 40% 1 01.09.2026 -
Yannick Mertens Mouscron Ativo 124 / 112 40% 1 18.08.2026 -
Leon Goretzka Aston Villa Ativo 147 / 163 40% 1 01.08.2026 -
Alex Scott Bournemouth Ativo 138 / 139 40% 1 01.08.2026 -